Time;durP1;ratioP1;P1;durP2;ratioP2;P2;SDS_P1;SDS_P2;PMS_P1;PMS_P2;Temp;Humidity;BMP_temperature;BMP_pressure;BME280_temperature;BME280_humidity;BME280_pressure;Samples;Min_cycle;Max_cycle;Signal;HPM_P1;HPM_P2
2024/02/22 00:01:42;;;;;;;3.80;2.25;;;10.40;56.40;;;;;;5072922;28;20193;-68
2024/02/22 00:04:09;;;;;;;3.40;2.00;;;10.40;57.00;;;;;;5073639;28;20826;-68
2024/02/22 00:06:37;;;;;;;2.95;1.70;;;10.40;57.40;;;;;;5073616;28;20190;-67
2024/02/22 00:09:05;;;;;;;2.50;1.40;;;10.40;57.70;;;;;;5073606;28;20194;-67
2024/02/22 00:11:33;;;;;;;2.85;1.85;;;10.40;57.80;;;;;;5073247;28;20269;-68
2024/02/22 00:14:00;;;;;;;3.25;2.05;;;10.40;57.70;;;;;;5073449;28;20309;-67
2024/02/22 00:16:27;;;;;;;4.22;2.22;;;10.40;57.60;;;;;;5073451;28;20229;-68
2024/02/22 00:18:54;;;;;;;2.85;1.65;;;10.50;57.20;;;;;;5073529;28;20190;-67
2024/02/22 00:21:25;;;;;;;3.80;2.40;;;10.50;57.00;;;;;;5073439;28;20221;-68
2024/02/22 00:23:52;;;;;;;4.22;2.40;;;10.40;57.00;;;;;;5073536;28;20182;-67
2024/02/22 00:26:21;;;;;;;3.50;2.30;;;10.40;57.30;;;;;;5073249;28;20247;-67
2024/02/22 00:28:49;;;;;;;3.72;2.10;;;10.50;56.30;;;;;;5073441;28;20193;-67
2024/02/22 00:31:18;;;;;;;3.83;2.08;;;10.50;56.60;;;;;;5073268;28;20198;-68
2024/02/22 00:33:46;;;;;;;3.95;2.30;;;10.40;56.80;;;;;;5074204;28;20236;-67
2024/02/22 00:36:13;;;;;;;5.25;2.53;;;10.40;56.90;;;;;;5077255;28;20194;-68
2024/02/22 00:38:40;;;;;;;3.35;1.95;;;10.40;57.20;;;;;;5077270;28;20194;-67
2024/02/22 00:41:16;;;;;;;3.70;2.10;;;10.40;57.50;;;;;;5076805;28;20304;-68
2024/02/22 00:43:43;;;;;;;4.05;1.98;;;10.40;57.30;;;;;;5077222;28;20185;-68
2024/02/22 00:46:12;;;;;;;4.13;2.00;;;10.40;57.20;;;;;;5077046;28;20284;-68
2024/02/22 00:48:39;;;;;;;3.97;1.77;;;10.40;57.00;;;;;;5077026;28;20637;-68
2024/02/22 00:51:06;;;;;;;6.72;2.70;;;10.40;56.70;;;;;;5076711;28;20664;-68
2024/02/22 00:53:34;;;;;;;3.35;2.03;;;10.40;57.00;;;;;;5076579;28;20297;-68
2024/02/22 00:56:01;;;;;;;3.65;1.90;;;10.40;57.40;;;;;;5076248;28;20278;-68
2024/02/22 00:58:28;;;;;;;3.55;2.05;;;10.50;57.50;;;;;;5076511;28;20204;-67
2024/02/22 01:00:55;;;;;;;3.85;2.58;;;10.40;57.50;;;;;;5076836;28;20244;-68
2024/02/22 01:03:25;;;;;;;3.58;1.73;;;10.50;57.20;;;;;;5076437;28;20198;-68
2024/02/22 01:05:52;;;;;;;4.05;1.83;;;10.50;57.10;;;;;;5076321;28;20181;-68
2024/02/22 01:08:19;;;;;;;3.85;2.03;;;10.40;57.20;;;;;;5076210;28;20217;-68
2024/02/22 01:10:46;;;;;;;2.88;1.67;;;10.40;57.70;;;;;;5076606;28;20280;-68
2024/02/22 01:13:18;;;;;;;3.17;1.65;;;10.40;57.50;;;;;;5076750;28;20249;-67
2024/02/22 01:15:46;;;;;;;3.22;1.70;;;10.40;57.60;;;;;;5076349;28;20602;-67
2024/02/22 01:18:13;;;;;;;7.30;2.35;;;10.40;58.20;;;;;;5076486;28;20609;-68
2024/02/22 01:20:41;;;;;;;4.40;2.17;;;10.40;58.70;;;;;;5076596;28;20182;-67
2024/02/22 01:23:08;;;;;;;5.82;1.90;;;10.40;58.70;;;;;;5076388;28;20194;-69
2024/02/22 01:25:36;;;;;;;4.30;2.20;;;10.40;58.80;;;;;;5076102;28;20226;-69
2024/02/22 01:28:03;;;;;;;5.05;2.30;;;10.40;59.20;;;;;;5076004;28;20200;-67
2024/02/22 01:30:30;;;;;;;4.30;2.00;;;10.40;59.70;;;;;;5075602;28;20644;-68
2024/02/22 01:32:57;;;;;;;8.80;2.13;;;10.40;59.40;;;;;;5076221;28;20271;-68
2024/02/22 01:35:26;;;;;;;4.10;2.00;;;10.30;59.50;;;;;;5076170;28;20226;-68
2024/02/22 01:37:54;;;;;;;3.42;2.10;;;10.30;60.10;;;;;;5076115;28;20197;-68
2024/02/22 01:40:22;;;;;;;3.40;2.00;;;10.30;60.40;;;;;;5075621;28;20194;-68
2024/02/22 01:42:49;;;;;;;5.22;2.70;;;10.30;60.80;;;;;;5075601;28;20253;-67
2024/02/22 01:45:16;;;;;;;3.90;2.63;;;10.30;61.00;;;;;;5074991;28;20285;-68
2024/02/22 01:47:44;;;;;;;3.47;1.80;;;10.40;60.50;;;;;;5075897;28;20194;-68
2024/02/22 01:50:12;;;;;;;2.85;1.63;;;10.40;59.60;;;;;;5075939;28;20194;-68
2024/02/22 01:52:40;;;;;;;4.28;1.90;;;10.30;59.90;;;;;;5075374;28;20624;-67
2024/02/22 01:55:10;;;;;;;2.92;1.40;;;10.30;60.10;;;;;;5075823;28;20196;-68
2024/02/22 01:57:38;;;;;;;5.28;1.75;;;10.30;60.00;;;;;;5075465;28;20277;-68
2024/02/22 02:00:15;;;;;;;3.60;2.15;;;10.30;60.40;;;;;;5075334;28;20289;-67
2024/02/22 02:02:43;;;;;;;2.80;1.90;;;10.20;60.70;;;;;;5075871;28;20177;-68
2024/02/22 02:05:11;;;;;;;2.40;1.27;;;10.20;61.10;;;;;;5075506;28;20211;-67
2024/02/22 02:07:39;;;;;;;2.60;1.35;;;10.20;60.30;;;;;;5075556;28;20198;-67
2024/02/22 02:10:09;;;;;;;4.40;1.20;;;10.20;60.10;;;;;;5075241;28;20221;-68
2024/02/22 02:12:37;;;;;;;3.10;1.48;;;10.30;59.50;;;;;;5075144;28;20261;-68
2024/02/22 02:15:04;;;;;;;6.72;1.40;;;10.40;59.90;;;;;;5075433;28;20281;-68
2024/02/22 02:17:32;;;;;;;2.50;1.55;;;10.40;60.40;;;;;;5075332;28;20656;-68
2024/02/22 02:20:05;;;;;;;2.83;1.30;;;10.30;61.20;;;;;;5074890;28;20774;-67
2024/02/22 02:22:51;;;;;;;3.15;1.33;;;10.20;62.20;;;;;;5074867;28;20688;-67
2024/02/22 02:25:19;;;;;;;3.20;1.00;;;10.30;63.30;;;;;;5074981;28;20179;-67
2024/02/22 02:27:47;;;;;;;2.90;1.30;;;10.30;64.30;;;;;;5074711;28;20200;-68
2024/02/22 02:30:15;;;;;;;3.00;0.90;;;10.20;64.10;;;;;;5074348;28;20277;-67
2024/02/22 02:32:42;;;;;;;2.00;0.90;;;10.20;64.70;;;;;;5074528;28;20186;-68
2024/02/22 02:35:09;;;;;;;2.05;0.93;;;10.20;64.60;;;;;;5074710;28;20212;-67
2024/02/22 02:37:36;;;;;;;2.00;1.13;;;10.30;64.60;;;;;;5074690;28;20664;-67
2024/02/22 02:40:06;;;;;;;1.92;0.70;;;10.30;64.30;;;;;;5074940;28;20248;-67
2024/02/22 02:42:35;;;;;;;1.80;0.75;;;10.40;63.70;;;;;;5074581;28;20225;-68
2024/02/22 02:45:02;;;;;;;3.33;0.82;;;10.30;63.70;;;;;;5074473;28;20203;-67
2024/02/22 02:47:29;;;;;;;3.28;1.08;;;10.50;63.60;;;;;;5074461;28;20197;-67
2024/02/22 02:49:59;;;;;;;2.50;1.25;;;10.60;64.20;;;;;;5074419;28;20226;-68
2024/02/22 02:52:26;;;;;;;2.25;0.98;;;10.50;64.10;;;;;;5074562;28;20288;-68
2024/02/22 02:54:53;;;;;;;2.35;1.25;;;10.50;64.10;;;;;;5074116;28;20301;-67
2024/02/22 02:57:25;;;;;;;2.55;1.00;;;10.60;64.60;;;;;;5074477;28;20194;-67
2024/02/22 02:59:53;;;;;;;2.53;1.30;;;10.60;64.60;;;;;;5074177;28;20221;-67
2024/02/22 03:02:22;;;;;;;2.53;1.10;;;10.60;65.10;;;;;;5074091;28;20271;-67
2024/02/22 03:04:49;;;;;;;3.00;1.58;;;10.60;65.10;;;;;;5074472;28;20201;-68
2024/02/22 03:07:16;;;;;;;3.88;1.60;;;10.70;64.00;;;;;;5074321;28;20533;-68
2024/02/22 03:09:43;;;;;;;2.85;1.67;;;10.80;62.50;;;;;;5074006;28;20586;-67
2024/02/22 03:12:14;;;;;;;4.38;2.08;;;10.80;61.90;;;;;;5074444;28;20229;-68
2024/02/22 03:14:41;;;;;;;2.80;1.45;;;10.70;61.40;;;;;;5073915;28;20693;-68
2024/02/22 03:17:10;;;;;;;2.20;1.02;;;10.70;61.30;;;;;;5074515;28;20185;-68
2024/02/22 03:19:37;;;;;;;2.60;1.30;;;10.70;61.20;;;;;;5073877;28;20225;-67
2024/02/22 03:22:04;;;;;;;2.38;1.23;;;10.70;60.70;;;;;;5074043;28;20229;-68
2024/02/22 03:24:32;;;;;;;2.20;1.00;;;10.60;61.00;;;;;;5074098;28;20208;-68
2024/02/22 03:27:03;;;;;;;2.90;1.17;;;10.60;61.60;;;;;;5074048;28;20227;-68
2024/02/22 03:29:30;;;;;;;3.30;1.05;;;10.50;61.60;;;;;;5073794;28;20510;-68
2024/02/22 03:31:57;;;;;;;2.28;0.95;;;10.50;61.70;;;;;;5074019;28;20185;-68
2024/02/22 03:34:30;;;;;;;3.35;1.08;;;10.50;61.70;;;;;;5073564;28;20252;-67
2024/02/22 03:36:57;;;;;;;2.50;1.08;;;10.40;62.00;;;;;;5074065;28;20216;-67
2024/02/22 03:39:24;;;;;;;2.00;1.00;;;10.30;61.80;;;;;;5073888;28;20221;-67
2024/02/22 03:41:56;;;;;;;2.20;1.02;;;10.30;62.00;;;;;;5073529;28;20253;-67
2024/02/22 03:44:23;;;;;;;2.30;1.00;;;10.30;62.00;;;;;;5073919;28;20214;-68
2024/02/22 03:46:52;;;;;;;3.00;1.25;;;10.20;61.70;;;;;;5073859;28;20679;-67
2024/02/22 03:49:19;;;;;;;2.42;1.25;;;10.20;61.70;;;;;;5073793;28;20229;-67
2024/02/22 03:51:47;;;;;;;2.40;1.02;;;10.30;61.70;;;;;;5073432;28;20269;-67
2024/02/22 03:54:19;;;;;;;2.33;0.85;;;10.30;61.50;;;;;;5073359;28;20692;-67
2024/02/22 03:56:46;;;;;;;1.92;0.70;;;10.30;60.50;;;;;;5073683;28;20178;-68
2024/02/22 03:59:13;;;;;;;2.42;1.10;;;10.30;60.40;;;;;;5073325;28;20200;-69
2024/02/22 04:01:40;;;;;;;2.00;0.87;;;10.30;60.20;;;;;;5073317;28;20222;-68
2024/02/22 04:04:09;;;;;;;2.00;0.90;;;10.40;59.90;;;;;;5073861;28;20465;-69
2024/02/22 04:06:36;;;;;;;3.40;2.17;;;10.40;60.00;;;;;;5073244;28;20515;-69
2024/02/22 04:09:06;;;;;;;2.92;1.50;;;10.40;60.40;;;;;;5073182;28;20332;-68
2024/02/22 04:11:38;;;;;;;5.30;3.00;;;10.40;61.30;;;;;;5073244;28;20221;-69
2024/02/22 04:14:05;;;;;;;5.35;2.40;;;10.50;61.50;;;;;;5073271;28;20220;-69
2024/02/22 04:16:32;;;;;;;4.25;2.10;;;10.50;61.80;;;;;;5073465;28;20281;-69
2024/02/22 04:18:59;;;;;;;4.22;2.75;;;10.50;62.10;;;;;;5073660;28;20202;-69
2024/02/22 04:21:27;;;;;;;4.65;2.95;;;10.50;62.70;;;;;;5073210;28;20229;-69
2024/02/22 04:23:54;;;;;;;2.88;1.70;;;10.50;63.00;;;;;;5073406;28;20190;-69
2024/02/22 04:26:22;;;;;;;3.08;1.55;;;10.50;63.20;;;;;;5073056;28;20285;-69
2024/02/22 04:28:49;;;;;;;4.70;1.50;;;10.50;63.20;;;;;;5072518;28;20220;-69
2024/02/22 04:31:16;;;;;;;2.45;1.25;;;10.50;63.10;;;;;;5072883;28;20190;-69
2024/02/22 04:33:43;;;;;;;2.20;1.20;;;10.50;62.70;;;;;;5073296;28;20213;-69
2024/02/22 04:36:11;;;;;;;3.38;1.60;;;10.50;62.50;;;;;;5073299;28;20221;-68
2024/02/22 04:38:38;;;;;;;2.47;1.35;;;10.50;62.60;;;;;;5072994;28;20194;-69
2024/02/22 04:41:05;;;;;;;2.80;1.50;;;10.50;62.30;;;;;;5072844;28;20193;-68
2024/02/22 04:43:34;;;;;;;7.70;1.80;;;10.40;62.60;;;;;;5072565;28;20182;-68
2024/02/22 04:46:01;;;;;;;2.65;1.50;;;10.40;63.10;;;;;;5073221;28;20572;-69
2024/02/22 04:48:29;;;;;;;3.72;2.00;;;10.40;63.50;;;;;;5072953;28;20195;-69
2024/02/22 04:50:56;;;;;;;2.95;1.58;;;10.40;63.70;;;;;;5072819;28;20671;-69
2024/02/22 04:53:23;;;;;;;3.30;2.00;;;10.40;64.60;;;;;;5072806;28;20236;-68
2024/02/22 04:55:50;;;;;;;3.70;1.60;;;10.30;63.90;;;;;;5073108;28;20229;-69
2024/02/22 04:58:17;;;;;;;4.65;1.70;;;10.30;64.50;;;;;;5072999;28;20613;-68
2024/02/22 05:00:46;;;;;;;2.40;1.25;;;10.30;64.50;;;;;;5072755;28;20226;-68
2024/02/22 05:03:13;;;;;;;2.45;1.58;;;10.30;64.10;;;;;;5072683;28;20190;-69
2024/02/22 05:05:45;;;;;;;3.10;1.88;;;10.20;63.90;;;;;;5072899;28;20194;-68
2024/02/22 05:08:12;;;;;;;2.60;1.30;;;10.10;64.30;;;;;;5073048;28;20597;-68
2024/02/22 05:10:39;;;;;;;3.35;2.35;;;10.10;64.70;;;;;;5072638;28;20202;-69
2024/02/22 05:13:06;;;;;;;3.38;2.00;;;10.10;65.00;;;;;;5072534;28;20198;-69
2024/02/22 05:15:34;;;;;;;3.83;2.10;;;10.10;64.90;;;;;;5072611;28;20352;-69
2024/02/22 05:18:03;;;;;;;8.13;5.60;;;10.10;66.00;;;;;;5072866;28;20190;-68
2024/02/22 05:20:32;;;;;;;6.63;4.55;;;10.10;65.40;;;;;;5073421;28;20186;-69
2024/02/22 05:23:00;;;;;;;4.90;3.63;;;10.10;65.60;;;;;;5076526;28;20225;-68
2024/02/22 05:25:27;;;;;;;4.93;3.40;;;10.10;65.90;;;;;;5076383;28;20198;-68
2024/02/22 05:27:54;;;;;;;4.75;3.03;;;10.10;66.30;;;;;;5076022;28;20222;-68
2024/02/22 05:30:21;;;;;;;4.35;2.53;;;10.10;66.20;;;;;;5076478;28;20226;-68
2024/02/22 05:32:48;;;;;;;5.07;2.55;;;10.00;66.00;;;;;;5075961;28;20229;-68
2024/02/22 05:35:16;;;;;;;6.10;3.28;;;10.00;66.30;;;;;;5075829;28;20245;-68
2024/02/22 05:37:44;;;;;;;4.68;2.35;;;10.00;66.30;;;;;;5075914;28;20198;-69
2024/02/22 05:40:12;;;;;;;5.80;2.70;;;10.00;66.40;;;;;;5075810;28;20226;-68
2024/02/22 05:42:38;;;;;;;5.05;3.45;;;10.00;66.60;;;;;;5075990;28;20275;-69
2024/02/22 05:45:07;;;;;;;5.45;2.72;;;10.00;66.10;;;;;;5075893;28;20233;-68
2024/02/22 05:47:34;;;;;;;6.78;3.20;;;10.10;66.10;;;;;;5075923;28;20189;-69
2024/02/22 05:50:02;;;;;;;4.72;2.85;;;10.10;66.20;;;;;;5076017;28;20281;-68
2024/02/22 05:52:31;;;;;;;3.75;2.30;;;10.00;66.40;;;;;;5075925;28;20198;-68
2024/02/22 05:54:58;;;;;;;4.82;2.65;;;10.00;66.50;;;;;;5075904;28;20304;-68
2024/02/22 05:57:30;;;;;;;4.10;1.92;;;9.90;68.10;;;;;;5075898;28;20213;-68
2024/02/22 05:59:57;;;;;;;2.90;1.45;;;9.90;67.90;;;;;;5075876;28;20240;-68
2024/02/22 06:02:24;;;;;;;3.25;1.83;;;9.90;67.40;;;;;;5075571;28;20227;-68
2024/02/22 06:04:51;;;;;;;3.70;2.67;;;9.80;67.60;;;;;;5075592;28;20217;-68
2024/02/22 06:07:22;;;;;;;6.75;3.20;;;9.80;67.70;;;;;;5075384;28;20576;-68
2024/02/22 06:09:50;;;;;;;5.30;2.38;;;9.80;67.20;;;;;;5075662;28;20255;-69
2024/02/22 06:12:18;;;;;;;4.70;2.83;;;9.80;67.40;;;;;;5075578;28;20543;-68
2024/02/22 06:14:45;;;;;;;5.85;2.65;;;9.80;67.60;;;;;;5075337;28;20226;-69
2024/02/22 06:17:12;;;;;;;7.78;3.60;;;9.80;67.90;;;;;;5075055;28;20256;-69
2024/02/22 06:19:39;;;;;;;8.13;4.05;;;9.80;68.30;;;;;;5075443;28;20190;-68
2024/02/22 06:22:06;;;;;;;4.78;2.90;;;9.90;67.90;;;;;;5075313;28;20190;-68
2024/02/22 06:24:33;;;;;;;4.75;2.70;;;9.90;67.80;;;;;;5074810;28;20657;-69
2024/02/22 06:27:08;;;;;;;4.40;2.50;;;9.90;68.20;;;;;;5075347;28;20264;-68
2024/02/22 06:29:35;;;;;;;4.22;2.72;;;9.90;68.60;;;;;;5074793;28;20587;-69
2024/02/22 06:32:02;;;;;;;6.35;3.97;;;9.90;68.50;;;;;;5074624;28;20248;-69
2024/02/22 06:34:32;;;;;;;8.13;4.15;;;9.90;68.30;;;;;;5075023;28;20559;-69
2024/02/22 06:36:59;;;;;;;7.07;4.18;;;10.00;66.10;;;;;;5074631;28;20194;-69
2024/02/22 06:39:27;;;;;;;3.13;1.77;;;10.00;65.60;;;;;;5074989;28;20190;-68
2024/02/22 06:41:54;;;;;;;6.53;2.35;;;10.00;64.30;;;;;;5074531;28;20222;-68
2024/02/22 06:44:23;;;;;;;4.20;2.40;;;10.00;63.00;;;;;;5074832;28;20198;-68
2024/02/22 06:46:52;;;;;;;3.95;2.33;;;10.10;62.90;;;;;;5074229;28;20675;-68
2024/02/22 06:49:19;;;;;;;6.55;2.22;;;10.10;62.70;;;;;;5074380;28;20190;-68
2024/02/22 06:51:46;;;;;;;3.78;2.40;;;10.20;62.60;;;;;;5074363;28;20212;-69
2024/02/22 06:54:14;;;;;;;2.97;1.60;;;10.20;62.50;;;;;;5073859;28;20226;-69
2024/02/22 06:56:45;;;;;;;4.65;2.50;;;10.30;61.30;;;;;;5074189;28;20221;-68
2024/02/22 06:59:12;;;;;;;4.78;3.10;;;10.30;61.10;;;;;;5073847;28;20265;-69
2024/02/22 07:01:41;;;;;;;6.30;2.90;;;10.30;62.10;;;;;;5073991;28;20552;-68
2024/02/22 07:04:09;;;;;;;4.70;3.20;;;10.40;61.40;;;;;;5074501;28;20231;-68
2024/02/22 07:06:36;;;;;;;4.30;2.75;;;10.40;60.10;;;;;;5074070;28;20197;-69
2024/02/22 07:09:04;;;;;;;4.38;2.25;;;10.40;60.30;;;;;;5073812;28;20692;-68
2024/02/22 07:11:35;;;;;;;7.03;2.72;;;10.40;59.60;;;;;;5073794;28;20218;-68
2024/02/22 07:14:02;;;;;;;3.20;1.92;;;10.40;59.20;;;;;;5062480;28;20648;-68
2024/02/22 07:16:29;;;;;;;5.20;2.97;;;10.40;59.40;;;;;;5073286;28;20641;-68
2024/02/22 07:18:58;;;;;;;5.18;4.05;;;10.40;58.40;;;;;;5073378;28;20273;-68
2024/02/22 07:21:32;;;;;;;4.15;2.90;;;10.40;58.40;;;;;;5079468;28;20691;-68
2024/02/22 07:23:58;;;;;;;5.03;3.15;;;10.50;58.10;;;;;;5077496;28;20232;-68
2024/02/22 07:26:25;;;;;;;3.70;2.60;;;10.50;58.30;;;;;;5073245;28;20272;-68
2024/02/22 07:28:52;;;;;;;5.70;3.58;;;10.50;58.00;;;;;;5074731;28;20209;-68
2024/02/22 07:31:19;;;;;;;4.93;2.78;;;10.60;58.30;;;;;;5073130;28;20224;-68
2024/02/22 07:33:47;;;;;;;6.55;3.92;;;10.60;58.30;;;;;;5072877;28;20193;-67
2024/02/22 07:36:15;;;;;;;5.70;3.40;;;10.70;58.10;;;;;;5072095;28;20213;-68
2024/02/22 07:38:48;;;;;;;6.95;2.60;;;10.70;57.70;;;;;;5072830;28;20186;-68
2024/02/22 07:41:16;;;;;;;5.68;2.90;;;10.80;57.60;;;;;;5072842;28;20186;-68
2024/02/22 07:43:43;;;;;;;6.20;3.63;;;10.80;57.90;;;;;;5074700;28;20186;-68
2024/02/22 07:46:11;;;;;;;4.82;3.40;;;10.80;58.50;;;;;;5084183;28;20204;-68
2024/02/22 07:48:40;;;;;;;6.43;3.10;;;10.80;58.40;;;;;;5073251;28;20201;-68
2024/02/22 07:51:07;;;;;;;5.03;2.95;;;10.80;58.20;;;;;;5073084;28;20719;-68
2024/02/22 07:53:38;;;;;;;4.32;2.90;;;10.80;58.30;;;;;;5073031;28;20190;-68
2024/02/22 07:56:07;;;;;;;5.80;3.78;;;10.90;58.00;;;;;;5090490;28;20284;-68
2024/02/22 07:58:45;;;;;;;4.25;2.95;;;10.90;58.30;;;;;;5092835;28;20272;-68
2024/02/22 08:01:12;;;;;;;5.90;3.23;;;10.90;58.60;;;;;;5093413;28;20213;-68
2024/02/22 08:03:39;;;;;;;4.30;2.50;;;11.00;59.50;;;;;;5092538;28;20954;-68
2024/02/22 08:06:07;;;;;;;5.32;3.10;;;11.00;60.50;;;;;;5092911;28;20639;-68
2024/02/22 08:08:36;;;;;;;4.55;2.90;;;11.10;61.20;;;;;;5092618;28;20200;-68
2024/02/22 08:11:03;;;;;;;6.15;3.40;;;11.10;61.30;;;;;;5091088;28;20227;-68
2024/02/22 08:13:30;;;;;;;4.57;3.50;;;11.10;61.50;;;;;;5093149;28;20266;-68
2024/02/22 08:16:05;;;;;;;5.25;3.33;;;11.20;62.30;;;;;;5074402;28;20293;-68
2024/02/22 08:18:32;;;;;;;5.75;3.88;;;11.20;62.30;;;;;;5072720;28;20182;-68
2024/02/22 08:21:00;;;;;;;7.33;3.70;;;11.30;62.80;;;;;;5072966;28;20597;-68
2024/02/22 08:23:27;;;;;;;5.40;3.47;;;11.30;62.50;;;;;;5073428;28;20428;-68
2024/02/22 08:25:55;;;;;;;4.75;3.28;;;11.30;62.20;;;;;;5072909;28;20197;-68
2024/02/22 08:28:24;;;;;;;4.40;3.50;;;11.30;62.20;;;;;;5073162;28;20198;-68
2024/02/22 08:30:51;;;;;;;5.35;3.42;;;11.30;62.00;;;;;;5073008;28;20444;-68
2024/02/22 08:33:19;;;;;;;5.88;3.45;;;11.30;62.00;;;;;;5072781;28;20197;-68
2024/02/22 08:35:47;;;;;;;7.30;3.50;;;11.30;62.20;;;;;;5072666;28;20224;-68
2024/02/22 08:38:14;;;;;;;5.80;3.23;;;11.30;62.10;;;;;;5072745;28;20433;-68
2024/02/22 08:40:41;;;;;;;3.37;2.30;;;11.40;62.20;;;;;;5073231;28;20519;-68
2024/02/22 08:43:10;;;;;;;6.07;3.20;;;11.40;62.30;;;;;;5072731;28;20475;-68
2024/02/22 08:45:38;;;;;;;5.60;3.30;;;11.40;62.40;;;;;;5073144;28;20511;-67
2024/02/22 08:48:06;;;;;;;5.67;3.60;;;11.40;63.50;;;;;;5072941;28;20436;-68
2024/02/22 08:50:33;;;;;;;5.82;3.25;;;11.50;62.70;;;;;;5072356;28;20435;-68
2024/02/22 08:53:00;;;;;;;5.43;3.80;;;11.50;62.60;;;;;;5072868;28;20193;-67
2024/02/22 08:55:27;;;;;;;5.63;4.10;;;11.40;61.80;;;;;;5074589;28;20479;-68
2024/02/22 08:57:54;;;;;;;4.90;3.50;;;11.50;60.80;;;;;;5076438;28;20821;-68
2024/02/22 09:00:23;;;;;;;8.07;4.00;;;11.40;60.10;;;;;;5076678;28;20262;-68
2024/02/22 09:02:51;;;;;;;7.10;3.97;;;11.40;60.00;;;;;;5076575;28;20543;-68
2024/02/22 09:05:19;;;;;;;7.33;4.00;;;11.40;59.90;;;;;;5076108;28;20440;-68
2024/02/22 09:07:46;;;;;;;8.70;4.80;;;11.40;60.50;;;;;;5076474;28;20873;-68
2024/02/22 09:10:15;;;;;;;6.43;3.80;;;11.40;60.70;;;;;;5076105;28;20934;-68
2024/02/22 09:12:43;;;;;;;5.83;3.60;;;11.40;61.00;;;;;;5076393;28;20494;-68
2024/02/22 09:15:11;;;;;;;6.07;4.30;;;11.50;62.50;;;;;;5076306;28;20806;-68
2024/02/22 09:17:39;;;;;;;4.93;3.60;;;11.60;62.40;;;;;;5075936;28;20424;-68
2024/02/22 09:20:07;;;;;;;6.47;3.60;;;11.70;61.80;;;;;;5075932;28;20430;-68
2024/02/22 09:22:34;;;;;;;7.33;3.53;;;11.70;61.70;;;;;;5075974;28;20503;-68
2024/02/22 09:25:06;;;;;;;4.55;3.60;;;11.70;60.60;;;;;;5076219;28;20467;-68
2024/02/22 09:27:33;;;;;;;8.02;3.70;;;11.70;61.10;;;;;;5076057;28;20218;-68
2024/02/22 09:30:03;;;;;;;5.57;3.03;;;11.70;61.40;;;;;;5075771;28;20743;-68
2024/02/22 09:32:31;;;;;;;7.30;3.00;;;11.70;61.40;;;;;;5075804;28;20423;-68
2024/02/22 09:34:59;;;;;;;5.77;2.50;;;11.80;61.30;;;;;;5075597;28;20190;-68
2024/02/22 09:37:27;;;;;;;4.53;2.47;;;11.80;61.40;;;;;;5075987;28;20425;-68
2024/02/22 09:39:54;;;;;;;6.30;3.30;;;11.80;61.30;;;;;;5075529;28;20996;-68
2024/02/22 09:42:26;;;;;;;5.07;3.00;;;11.80;61.50;;;;;;5075333;28;20893;-68
2024/02/22 09:44:54;;;;;;;6.67;3.50;;;11.80;61.90;;;;;;5075922;28;20459;-68
2024/02/22 09:47:22;;;;;;;5.40;3.80;;;11.90;63.10;;;;;;5075725;28;20507;-68
2024/02/22 09:49:49;;;;;;;8.77;3.63;;;11.90;63.50;;;;;;5075804;28;20468;-68
2024/02/22 09:52:19;;;;;;;5.20;3.87;;;11.90;63.90;;;;;;5075661;28;20522;-68
2024/02/22 09:54:46;;;;;;;13.43;8.80;;;12.00;64.70;;;;;;5075276;28;20508;-68
2024/02/22 09:57:14;;;;;;;15.50;9.30;;;12.10;64.00;;;;;;5075480;28;20902;-68
2024/02/22 09:59:48;;;;;;;14.83;9.57;;;12.10;63.00;;;;;;5075182;28;20838;-69
2024/02/22 10:02:15;;;;;;;12.10;7.63;;;12.00;63.60;;;;;;5075690;28;20416;-68
2024/02/22 10:04:52;;;;;;;8.53;5.13;;;12.00;64.00;;;;;;5075451;28;20506;-68
2024/02/22 10:07:24;;;;;;;6.83;4.53;;;12.00;63.60;;;;;;5074520;28;20422;-68
2024/02/22 10:09:51;;;;;;;6.93;3.60;;;12.00;63.50;;;;;;5075402;28;20460;-68
2024/02/22 10:12:25;;;;;;;6.47;4.00;;;12.10;62.90;;;;;;5075315;28;20436;-68
2024/02/22 10:14:53;;;;;;;5.40;4.00;;;12.10;62.00;;;;;;5075427;28;20440;-68
2024/02/22 10:17:24;;;;;;;8.13;3.23;;;12.00;62.70;;;;;;5075332;28;20475;-68
2024/02/22 10:20:00;;;;;;;7.33;3.87;;;11.90;62.40;;;;;;5075242;28;20439;-68
2024/02/22 10:22:31;;;;;;;8.33;3.70;;;12.00;61.90;;;;;;5074766;28;20462;-68
2024/02/22 10:25:08;;;;;;;5.23;2.73;;;11.90;62.70;;;;;;5074550;28;20443;-68
2024/02/22 10:27:35;;;;;;;7.70;5.00;;;11.90;63.00;;;;;;5074674;28;20432;-68
2024/02/22 10:30:08;;;;;;;10.03;5.87;;;11.90;63.50;;;;;;5074850;28;20524;-68
2024/02/22 10:32:37;;;;;;;7.20;4.47;;;12.00;64.30;;;;;;5075073;28;20424;-68
2024/02/22 10:35:06;;;;;;;12.47;6.30;;;12.00;64.20;;;;;;5074513;28;20428;-68
2024/02/22 10:37:36;;;;;;;26.27;16.20;;;12.10;63.20;;;;;;5074499;28;20469;-69
2024/02/22 10:40:04;;;;;;;22.80;11.90;;;12.20;63.50;;;;;;5074442;28;20915;-68
2024/02/22 10:42:31;;;;;;;16.70;10.20;;;12.40;62.70;;;;;;5074574;28;20467;-68
2024/02/22 10:44:58;;;;;;;16.83;12.17;;;12.50;62.70;;;;;;5074309;28;20432;-68
2024/02/22 10:47:27;;;;;;;19.30;13.57;;;12.70;64.10;;;;;;5074237;28;20478;-68
2024/02/22 10:49:57;;;;;;;11.77;7.80;;;12.80;64.10;;;;;;5074618;28;20531;-68
2024/02/22 10:52:26;;;;;;;12.20;7.10;;;13.00;62.20;;;;;;5074192;28;20476;-68
2024/02/22 10:54:57;;;;;;;4.20;2.10;;;13.10;61.60;;;;;;5074485;28;20472;-68
2024/02/22 10:57:26;;;;;;;3.60;2.30;;;13.20;61.20;;;;;;5074290;28;20467;-69
2024/02/22 10:59:56;;;;;;;3.23;1.90;;;13.20;60.00;;;;;;5074366;28;20918;-68
2024/02/22 11:02:24;;;;;;;4.43;2.30;;;13.30;61.30;;;;;;5074280;28;20472;-68
2024/02/22 11:04:51;;;;;;;4.50;2.63;;;13.30;60.50;;;;;;5074244;28;20468;-68
2024/02/22 11:07:19;;;;;;;3.70;2.30;;;13.40;60.30;;;;;;5074261;28;20838;-68
2024/02/22 11:09:50;;;;;;;2.80;1.73;;;13.40;60.60;;;;;;5073886;28;20460;-68
2024/02/22 11:12:20;;;;;;;5.07;2.50;;;13.50;61.00;;;;;;5074126;28;20429;-68
2024/02/22 11:14:47;;;;;;;6.93;3.53;;;13.50;60.00;;;;;;5073964;28;20926;-68
2024/02/22 11:17:18;;;;;;;12.70;7.20;;;13.60;59.80;;;;;;5073507;28;20468;-69
2024/02/22 11:19:51;;;;;;;9.50;5.20;;;13.60;59.00;;;;;;5073616;28;20448;-68
2024/02/22 11:22:18;;;;;;;5.00;3.53;;;13.70;57.70;;;;;;5073571;28;20424;-69
2024/02/22 11:24:47;;;;;;;5.60;2.70;;;13.70;57.80;;;;;;5073935;28;20463;-68
2024/02/22 11:27:19;;;;;;;3.47;2.40;;;13.70;58.40;;;;;;5073504;28;20969;-68
2024/02/22 11:29:46;;;;;;;4.63;2.37;;;13.70;58.60;;;;;;5073529;28;20470;-68
2024/02/22 11:32:14;;;;;;;4.50;2.70;;;13.70;57.40;;;;;;5073824;28;20829;-68
2024/02/22 11:34:41;;;;;;;3.93;2.70;;;13.70;58.00;;;;;;5073594;28;20464;-68
2024/02/22 11:37:16;;;;;;;3.70;2.50;;;13.70;58.60;;;;;;5073627;28;20562;-69
2024/02/22 11:39:43;;;;;;;4.10;2.70;;;13.70;57.50;;;;;;5073378;28;20423;-68
2024/02/22 11:42:15;;;;;;;4.90;2.90;;;13.70;58.30;;;;;;5073373;28;21025;-68
2024/02/22 11:44:43;;;;;;;4.80;3.40;;;13.70;59.10;;;;;;5073626;28;20507;-69
2024/02/22 11:47:12;;;;;;;5.70;2.63;;;13.70;60.20;;;;;;5073520;28;20439;-69
2024/02/22 11:49:45;;;;;;;4.63;2.60;;;13.70;60.90;;;;;;5073629;28;20432;-68
2024/02/22 11:52:12;;;;;;;7.33;2.40;;;13.80;60.90;;;;;;5073502;28;20779;-68
2024/02/22 11:54:41;;;;;;;3.87;2.17;;;13.80;60.20;;;;;;5073133;28;20501;-68
2024/02/22 11:57:09;;;;;;;3.47;2.23;;;13.90;60.10;;;;;;5073490;28;20476;-68
2024/02/22 11:59:37;;;;;;;5.40;2.50;;;13.90;59.00;;;;;;5073014;28;20527;-68
2024/02/22 12:02:07;;;;;;;5.03;2.30;;;14.00;59.00;;;;;;5073456;28;20433;-68
2024/02/22 12:04:35;;;;;;;6.40;2.67;;;14.00;59.40;;;;;;5072679;28;20443;-68
2024/02/22 12:07:02;;;;;;;4.23;2.50;;;14.10;59.40;;;;;;5073324;28;20463;-69
2024/02/22 12:09:30;;;;;;;3.30;2.30;;;14.10;59.10;;;;;;5073348;28;20428;-68
2024/02/22 12:11:57;;;;;;;5.70;2.50;;;14.10;59.10;;;;;;5070565;28;20432;-69
2024/02/22 12:14:25;;;;;;;10.47;2.40;;;14.20;59.50;;;;;;5073013;28;20436;-69
2024/02/22 12:16:52;;;;;;;3.90;2.47;;;14.20;58.90;;;;;;5074362;28;20475;-68
2024/02/22 12:19:22;;;;;;;4.37;2.60;;;14.20;58.90;;;;;;5072928;28;20450;-68
2024/02/22 12:21:49;;;;;;;3.60;2.57;;;14.30;59.10;;;;;;5072060;28;20848;-69
2024/02/22 12:24:16;;;;;;;3.70;2.40;;;14.30;58.60;;;;;;5077740;28;20440;-69
2024/02/22 12:26:50;;;;;;;4.60;2.70;;;14.40;58.00;;;;;;5072959;28;20463;-69
2024/02/22 12:29:17;;;;;;;4.00;2.70;;;14.40;58.40;;;;;;5073084;28;20459;-69
2024/02/22 12:31:44;;;;;;;4.20;2.77;;;14.50;58.70;;;;;;5076836;28;20514;-69
2024/02/22 12:34:11;;;;;;;3.80;2.53;;;14.70;58.70;;;;;;5076386;28;20485;-68
2024/02/22 12:36:40;;;;;;;4.20;2.50;;;14.80;58.50;;;;;;5076812;28;20532;-69
2024/02/22 12:39:07;;;;;;;4.40;2.67;;;15.00;58.60;;;;;;5076986;28;20464;-69
2024/02/22 12:41:34;;;;;;;4.23;2.10;;;15.20;58.00;;;;;;5076880;28;20464;-69
2024/02/22 12:44:01;;;;;;;4.90;2.83;;;15.50;57.70;;;;;;5075870;28;20433;-69
2024/02/22 12:46:28;;;;;;;4.80;2.57;;;15.90;57.00;;;;;;5076717;28;20810;-69
2024/02/22 12:48:55;;;;;;;3.83;2.10;;;16.20;56.60;;;;;;5074884;28;20512;-69
2024/02/22 12:51:22;;;;;;;3.77;1.40;;;16.30;56.70;;;;;;5076465;28;20475;-68